Aérodrome :







RETROUVEZ-NOUS SUR...

 
LOGIN :

S'inscrire | Disclaimer

   EN    FR    IT 

 









Légende :    VFR   VFR Marginal   IFR   IFR Intensif   IFR Très Intensif
Visi : 
Plafond : 
>= 8 km
>= 3000ft
5 à 8 km
1000 à 3000 ft
1500m à 5 km
500 à 1000 ft
800 à 1500m
200 à 500 ft
< 800m
< 200 ft
Symboles :   Orages  Brouillard  Fortes neiges  Fortes précipitations  Vent > 20 kt






- Altitude de l'aérodrome : 266 ft
- Code IATA : MHT


KMHT - Manchester

DERNIER METAR :
  • 051401Z 34007KT 4SM -RA BR FEW005 BKN018 OVC026 04/02 A2977 RMK AO2 P0002 T00390022

METARs EXPIRÉS :
  • 051353Z 34006KT 5SM RA BR BKN018 OVC026 04/03 A2977 RMK AO2 SLP099 P0010 T00390028
  • 051310Z 35003KT 5SM -RA BR FEW019 OVC028 04/03 A2979 RMK AO2 P0003 T00440028
  • 051253Z 35003KT 3SM -RA BR OVC030 04/03 A2979 RMK AO2 SLP104 P0008 T00390028
  • 051234Z 36005KT 6SM -RA BR OVC030 04/02 A2979 RMK AO2 P0006 T00390022
  • 051153Z 00000KT 5SM -RA BR OVC027 04/02 A2982 RMK AO2 SLP114 P0005 60005 70005 T00390022 10050 20039 58006

TAF KMHT
Valide du 05 à 13h jusqu'au 06 à 12h UTC


051320Z 0513/0612 35003KT 5SM -RA FEW015 OVC025
FM051400 36011KT 4SM -RA OVC005
FM052200 35016G28KT 1/2SM SN OVC004 WS020/00050KT
FM060600 31016G30KT P6SM OVC025
FIR KZBW / Amérique du Nord



MET'MAP, la Météo Aéronautique d'un coup d'oeil ! - Copyright ORBIFLY Décembre 2007 - Disclaimer

ORBIFLY MET'MAP TEAM :

Programmation & Développement : Alexandra Zaïnal
Sur une idée originale de : Baudouin d'Aumeries
Assistance à la programmation : Marc-Olivier Méhu
Soutien technique & logistique : Manuel Goepfert

Contact : metmap@orbifly.com




SOURCES & CREDITS :

   NOAA